KFDK

Frederick Municipal Airport

Frederick, Maryland, USA
METAR KFDK 170745Z AUTO 00000KT 10SM CLR M04/M04 A3025 RMK AO2
Observed Flight Rules
Dec-17 @ 07:45 UTC (31 minutes ago) Visual Flight Rules
Wind Visibility Clouds
Calm 10 miles
  • Clear skies
Temperatures Readings
Current -4°C / 25°F
Dewpoint -4°C / 25°F
Humidity 100%
Altimeter 30.25" Hg
Pressure 1024 hPa
Elevation 92
METAR KFDK 170745Z AUTO 00000KT 10SM CLR M04/M04 A3025 RMK AO2
Observed Flight Rules
Dec-17 @ 07:45 UTC
(31 minutes ago)
VFR
Wind Visibility
Calm 10 miles
Clouds
  • Clear skies
Temperature Dewpoint
-4°C / 25°F -4°C / 25°F
Humidity Altimeter Pressure
100% 30.25" Hg 1024 hPa